^^
Meteo Knjazevac Station Historical Data
Daily Summary for July 9, 2021 Units:  Both    English   Metric
Daily Weekly Monthly Yearly Custom
  High: Low: Average:
Temperature: 99.5 °F /  37.5 °C 61 °F /  16.1 °C 80.4 °F /  26.9 °C
Dew Point: 69.6 °F /  20.9 °C 56.4 °F /  13.6 °C 62.8 °F /  17.1 °C
Humidity: 86% 33% 59%
Wind Speed: 8mph /  12.9km/h - 2.3mph /  3.7km/h
Wind Gust: 14mph /  22.5km/h - -
Wind- - West
Pressure: 30.12 in /  1019.9 hPa 30.06 in /  1017.8 hPa -
Precipitation: 0.00 in /  0 mm    
Historical Graphs
 
 
Tabular Data for July 9, 2021
Time Temperature Dew Point Pressure Wind Wind Speed Wind Gust Humidity Rainfall Rate (Hourly) solar Conditions
00:00 68.7 °F /  20.4 °C 59.3 °F /  15.2 °C 30.06in /  1017.8hPa WNW 1mph /  1.6km/h 4mph /  6.4km/h 72% 0.00in /  0mm 0 W/m2
00:10 68.4 °F /  20.2 °C 59.4 °F /  15.2 °C 30.06in /  1017.8hPa WSW 2mph /  3.2km/h 3mph /  4.8km/h 73% 0.00in /  0mm 0 W/m2
00:20 68.2 °F /  20.1 °C 59.2 °F /  15.1 °C 30.06in /  1017.8hPa NW 1mph /  1.6km/h 5mph /  8km/h 73% 0.00in /  0mm 0 W/m2
00:30 68.2 °F /  20.1 °C 59.6 °F /  15.3 °C 30.06in /  1017.8hPa Calm   1mph /  1.6km/h 74% 0.00in /  0mm 0 W/m2
00:40 67.8 °F /  19.9 °C 59.2 °F /  15.1 °C 30.07in /  1018.2hPa Calm   2mph /  3.2km/h 74% 0.00in /  0mm 0 W/m2
00:50 67.3 °F /  19.6 °C 59.1 °F /  15.1 °C 30.07in /  1018.2hPa NW 1mph /  1.6km/h 2mph /  3.2km/h 75% 0.00in /  0mm 0 W/m2
01:00 67.1 °F /  19.5 °C 58.9 °F /  14.9 °C 30.06in /  1017.8hPa WNW 1mph /  1.6km/h 2mph /  3.2km/h 75% 0.00in /  0mm 0 W/m2
01:10 66.7 °F /  19.3 °C 59.3 °F /  15.2 °C 30.06in /  1017.8hPa WNW 2mph /  3.2km/h 4mph /  6.4km/h 77% 0.00in /  0mm 0 W/m2
01:20 66.6 °F /  19.2 °C 59.1 °F /  15.1 °C 30.06in /  1017.8hPa WNW 2mph /  3.2km/h 4mph /  6.4km/h 77% 0.00in /  0mm 0 W/m2
01:30 66.4 °F /  19.1 °C 58.2 °F /  14.6 °C 30.06in /  1017.8hPa West 2mph /  3.2km/h 5mph /  8km/h 75% 0.00in /  0mm 0 W/m2
01:40 66 °F /  18.9 °C 58.6 °F /  14.8 °C 30.06in /  1017.8hPa Calm   4mph /  6.4km/h 77% 0.00in /  0mm 0 W/m2
01:50 65.5 °F /  18.6 °C 58.4 °F /  14.7 °C 30.06in /  1017.8hPa WNW 1mph /  1.6km/h 2mph /  3.2km/h 78% 0.00in /  0mm 0 W/m2
02:00 64.9 °F /  18.3 °C 58.3 °F /  14.6 °C 30.06in /  1017.8hPa West 2mph /  3.2km/h 5mph /  8km/h 79% 0.00in /  0mm 0 W/m2
02:10 64.9 °F /  18.3 °C 57.9 °F /  14.4 °C 30.07in /  1018.2hPa West 3mph /  4.8km/h 5mph /  8km/h 78% 0.00in /  0mm 0 W/m2
02:20 64.6 °F /  18.1 °C 57.6 °F /  14.2 °C 30.07in /  1018.2hPa West 2mph /  3.2km/h 5mph /  8km/h 78% 0.00in /  0mm 0 W/m2
02:30 64.6 °F /  18.1 °C 57.9 °F /  14.4 °C 30.07in /  1018.2hPa WSW 1mph /  1.6km/h 3mph /  4.8km/h 79% 0.00in /  0mm 0 W/m2
02:40 64.2 °F /  17.9 °C 57.6 °F /  14.2 °C 30.07in /  1018.2hPa Calm   2mph /  3.2km/h 79% 0.00in /  0mm 0 W/m2
02:50 64 °F /  17.8 °C 57.7 °F /  14.3 °C 30.08in /  1018.5hPa Calm   2mph /  3.2km/h 80% 0.00in /  0mm 0 W/m2
03:00 64 °F /  17.8 °C 57.7 °F /  14.3 °C 30.08in /  1018.5hPa Calm   2mph /  3.2km/h 80% 0.00in /  0mm 0 W/m2
03:10 63.7 °F /  17.6 °C 57.4 °F /  14.1 °C 30.08in /  1018.5hPa Calm   2mph /  3.2km/h 80% 0.00in /  0mm 0 W/m2
03:20 63.5 °F /  17.5 °C 57.2 °F /  14 °C 30.08in /  1018.5hPa WNW 1mph /  1.6km/h 2mph /  3.2km/h 80% 0.00in /  0mm 0 W/m2
03:30 63.5 °F /  17.5 °C 57.6 °F /  14.2 °C 30.08in /  1018.5hPa Calm   2mph /  3.2km/h 81% 0.00in /  0mm 0 W/m2
03:40 63.5 °F /  17.5 °C 57.6 °F /  14.2 °C 30.08in /  1018.5hPa Calm   2mph /  3.2km/h 81% 0.00in /  0mm 0 W/m2
03:50 63 °F /  17.2 °C 57 °F /  13.9 °C 30.08in /  1018.5hPa West 1mph /  1.6km/h 2mph /  3.2km/h 81% 0.00in /  0mm 0 W/m2
04:00 62.6 °F /  17 °C 57.4 °F /  14.1 °C 30.08in /  1018.5hPa Calm   2mph /  3.2km/h 83% 0.00in /  0mm 0 W/m2
04:10 62.4 °F /  16.9 °C 57.2 °F /  14 °C 30.09in /  1018.8hPa NW 1mph /  1.6km/h 2mph /  3.2km/h 83% 0.00in /  0mm 0 W/m2
04:20 62.4 °F /  16.9 °C 57.2 °F /  14 °C 30.09in /  1018.8hPa Calm   2mph /  3.2km/h 83% 0.00in /  0mm 0 W/m2
04:30 62.2 °F /  16.8 °C 57.3 °F /  14.1 °C 30.09in /  1018.8hPa NNW 1mph /  1.6km/h 2mph /  3.2km/h 84% 0.00in /  0mm 0 W/m2
04:40 61.9 °F /  16.6 °C 57 °F /  13.9 °C 30.09in /  1018.8hPa Calm   2mph /  3.2km/h 84% 0.00in /  0mm 0 W/m2
04:50 61.5 °F /  16.4 °C 56.6 °F /  13.7 °C 30.09in /  1018.8hPa WNW 1mph /  1.6km/h 2mph /  3.2km/h 84% 0.00in /  0mm 0 W/m2
05:00 61.1 °F /  16.2 °C 56.6 °F /  13.7 °C 30.10in /  1019.2hPa WSW 2mph /  3.2km/h 4mph /  6.4km/h 85% 0.00in /  0mm 0 W/m2
05:10 61 °F /  16.1 °C 56.4 °F /  13.6 °C 30.10in /  1019.2hPa West 2mph /  3.2km/h 5mph /  8km/h 85% 0.00in /  0mm 0 W/m2
05:20 61.2 °F /  16.2 °C 56.6 °F /  13.7 °C 30.10in /  1019.2hPa WNW 2mph /  3.2km/h 5mph /  8km/h 85% 0.00in /  0mm 0 W/m2
05:30 61.3 °F /  16.3 °C 56.8 °F /  13.8 °C 30.10in /  1019.2hPa West 2mph /  3.2km/h 3mph /  4.8km/h 85% 0.00in /  0mm 4 W/m2
05:40 61.2 °F /  16.2 °C 56.6 °F /  13.7 °C 30.11in /  1019.5hPa West 1mph /  1.6km/h 2mph /  3.2km/h 85% 0.00in /  0mm 9 W/m2
05:50 61.2 °F /  16.2 °C 56.6 °F /  13.7 °C 30.11in /  1019.5hPa WNW 1mph /  1.6km/h 2mph /  3.2km/h 85% 0.00in /  0mm 17 W/m2
06:00 61.2 °F /  16.2 °C 56.6 °F /  13.7 °C 30.11in /  1019.5hPa NW 1mph /  1.6km/h 3mph /  4.8km/h 85% 0.00in /  0mm 28 W/m2
06:10 61.3 °F /  16.3 °C 56.8 °F /  13.8 °C 30.11in /  1019.5hPa Calm   2mph /  3.2km/h 85% 0.00in /  0mm 42 W/m2
06:20 61.3 °F /  16.3 °C 56.8 °F /  13.8 °C 30.11in /  1019.5hPa WNW 1mph /  1.6km/h 3mph /  4.8km/h 85% 0.00in /  0mm 58 W/m2
06:30 61.5 °F /  16.4 °C 57.3 °F /  14.1 °C 30.11in /  1019.5hPa WNW 1mph /  1.6km/h 3mph /  4.8km/h 86% 0.00in /  0mm 77 W/m2
06:40 61.5 °F /  16.4 °C 57.3 °F /  14.1 °C 30.11in /  1019.5hPa WNW 1mph /  1.6km/h 2mph /  3.2km/h 86% 0.00in /  0mm 98 W/m2
06:50 61.5 °F /  16.4 °C 57.3 °F /  14.1 °C 30.12in /  1019.9hPa West 2mph /  3.2km/h 4mph /  6.4km/h 86% 0.00in /  0mm 125 W/m2
07:00 61.9 °F /  16.6 °C 57.6 °F /  14.2 °C 30.12in /  1019.9hPa West 1mph /  1.6km/h 3mph /  4.8km/h 86% 0.00in /  0mm 152 W/m2
07:10 62.2 °F /  16.8 °C 58 °F /  14.4 °C 30.12in /  1019.9hPa WNW 1mph /  1.6km/h 2mph /  3.2km/h 86% 0.00in /  0mm 173 W/m2
07:20 62.8 °F /  17.1 °C 58.5 °F /  14.7 °C 30.12in /  1019.9hPa WNW 1mph /  1.6km/h 2mph /  3.2km/h 86% 0.00in /  0mm 202 W/m2
07:30 63.5 °F /  17.5 °C 58.9 °F /  14.9 °C 30.12in /  1019.9hPa West 2mph /  3.2km/h 3mph /  4.8km/h 85% 0.00in /  0mm 241 W/m2
07:40 64.3 °F /  17.9 °C 59.3 °F /  15.2 °C 30.12in /  1019.9hPa WNW 2mph /  3.2km/h 5mph /  8km/h 84% 0.00in /  0mm 265 W/m2
07:50 65.2 °F /  18.4 °C 59.2 °F /  15.1 °C 30.12in /  1019.9hPa WNW 1mph /  1.6km/h 4mph /  6.4km/h 81% 0.00in /  0mm 310 W/m2
08:00 66.1 °F /  18.9 °C 60.1 °F /  15.6 °C 30.12in /  1019.9hPa Calm   3mph /  4.8km/h 81% 0.00in /  0mm 358 W/m2
08:10 67.1 °F /  19.5 °C 61.1 °F /  16.2 °C 30.12in /  1019.9hPa WNW 1mph /  1.6km/h 3mph /  4.8km/h 81% 0.00in /  0mm 403 W/m2
08:20 68.2 °F /  20.1 °C 61.5 °F /  16.4 °C 30.12in /  1019.9hPa WNW 1mph /  1.6km/h 4mph /  6.4km/h 79% 0.00in /  0mm 436 W/m2
08:30 69.3 °F /  20.7 °C 61.8 °F /  16.6 °C 30.12in /  1019.9hPa WNW 1mph /  1.6km/h 3mph /  4.8km/h 77% 0.00in /  0mm 472 W/m2
08:40 70.5 °F /  21.4 °C 62.2 °F /  16.8 °C 30.12in /  1019.9hPa WNW 1mph /  1.6km/h 3mph /  4.8km/h 75% 0.00in /  0mm 503 W/m2
08:50 72 °F /  22.2 °C 63.3 °F /  17.4 °C 30.12in /  1019.9hPa West 1mph /  1.6km/h 5mph /  8km/h 74% 0.00in /  0mm 536 W/m2
09:00 73.7 °F /  23.2 °C 64.1 °F /  17.8 °C 30.12in /  1019.9hPa West 2mph /  3.2km/h 4mph /  6.4km/h 72% 0.00in /  0mm 575 W/m2
09:10 76.3 °F /  24.6 °C 65.8 °F /  18.8 °C 30.12in /  1019.9hPa West 1mph /  1.6km/h 3mph /  4.8km/h 70% 0.00in /  0mm 609 W/m2
09:20 78.8 °F /  26 °C 67.4 °F /  19.7 °C 30.12in /  1019.9hPa WSW 1mph /  1.6km/h 3mph /  4.8km/h 68% 0.00in /  0mm 636 W/m2
09:30 81 °F /  27.2 °C 67.7 °F /  19.8 °C 30.12in /  1019.9hPa WNW 1mph /  1.6km/h 3mph /  4.8km/h 64% 0.00in /  0mm 662 W/m2
09:40 83 °F /  28.3 °C 67.2 °F /  19.6 °C 30.12in /  1019.9hPa SE 1mph /  1.6km/h 4mph /  6.4km/h 59% 0.00in /  0mm 687 W/m2
09:50 84.4 °F /  29.1 °C 67.5 °F /  19.7 °C 30.12in /  1019.9hPa SE 1mph /  1.6km/h 3mph /  4.8km/h 57% 0.00in /  0mm 711 W/m2
10:00 86 °F /  30 °C 67.5 °F /  19.7 °C 30.11in /  1019.5hPa South 1mph /  1.6km/h 6mph /  9.7km/h 54% 0.00in /  0mm 733 W/m2
10:10 87.3 °F /  30.7 °C 68.1 °F /  20.1 °C 30.12in /  1019.9hPa SSE 2mph /  3.2km/h 6mph /  9.7km/h 53% 0.00in /  0mm 755 W/m2
10:20 88.4 °F /  31.3 °C 67.4 °F /  19.7 °C 30.11in /  1019.5hPa SSE 2mph /  3.2km/h 5mph /  8km/h 50% 0.00in /  0mm 775 W/m2
10:30 89.6 °F /  32 °C 67.9 °F /  19.9 °C 30.11in /  1019.5hPa SSW 1mph /  1.6km/h 5mph /  8km/h 49% 0.00in /  0mm 795 W/m2
10:40 90.5 °F /  32.5 °C 68.2 °F /  20.1 °C 30.11in /  1019.5hPa South 1mph /  1.6km/h 5mph /  8km/h 48% 0.00in /  0mm 813 W/m2
10:50 91.2 °F /  32.9 °C 68.2 °F /  20.1 °C 30.10in /  1019.2hPa SSW 1mph /  1.6km/h 6mph /  9.7km/h 47% 0.00in /  0mm 158 W/m2
11:00 92 °F /  33.3 °C 68.2 °F /  20.1 °C 30.11in /  1019.5hPa SSE 1mph /  1.6km/h 8mph /  12.9km/h 46% 0.00in /  0mm 844 W/m2
11:10 93.1 °F /  33.9 °C 68.6 °F /  20.3 °C 30.10in /  1019.2hPa SSE 1mph /  1.6km/h 6mph /  9.7km/h 45% 0.00in /  0mm 173 W/m2
11:20 93.6 °F /  34.2 °C 68.4 °F /  20.2 °C 30.10in /  1019.2hPa SW 3mph /  4.8km/h 6mph /  9.7km/h 44% 0.00in /  0mm 572 W/m2
11:30 94.3 °F /  34.6 °C 69 °F /  20.6 °C 30.10in /  1019.2hPa South 3mph /  4.8km/h 7mph /  11.3km/h 44% 0.00in /  0mm 881 W/m2
11:40 94.5 °F /  34.7 °C 69.2 °F /  20.7 °C 30.10in /  1019.2hPa WSW 6mph /  9.7km/h 10mph /  16.1km/h 44% 0.00in /  0mm 890 W/m2
11:50 94.9 °F /  34.9 °C 69.5 °F /  20.8 °C 30.10in /  1019.2hPa SSW 3mph /  4.8km/h 8mph /  12.9km/h 44% 0.00in /  0mm 898 W/m2
12:00 95.2 °F /  35.1 °C 69.2 °F /  20.7 °C 30.10in /  1019.2hPa SSW 5mph /  8km/h 8mph /  12.9km/h 43% 0.00in /  0mm 904 W/m2
12:10 95.4 °F /  35.2 °C 69.3 °F /  20.7 °C 30.10in /  1019.2hPa SW 2mph /  3.2km/h 8mph /  12.9km/h 43% 0.00in /  0mm 909 W/m2
12:20 95.5 °F /  35.3 °C 68.8 °F /  20.4 °C 30.10in /  1019.2hPa SW 3mph /  4.8km/h 8mph /  12.9km/h 42% 0.00in /  0mm 793 W/m2
12:30 95.7 °F /  35.4 °C 69 °F /  20.6 °C 30.10in /  1019.2hPa WSW 2mph /  3.2km/h 8mph /  12.9km/h 42% 0.00in /  0mm 914 W/m2
12:40 95.9 °F /  35.5 °C 69.1 °F /  20.6 °C 30.10in /  1019.2hPa WSW 6mph /  9.7km/h 12mph /  19.3km/h 42% 0.00in /  0mm 914 W/m2
12:50 96.4 °F /  35.8 °C 69.6 °F /  20.9 °C 30.10in /  1019.2hPa SW 3mph /  4.8km/h 10mph /  16.1km/h 42% 0.00in /  0mm 912 W/m2
13:00 96.6 °F /  35.9 °C 69.1 °F /  20.6 °C 30.10in /  1019.2hPa WSW 5mph /  8km/h 11mph /  17.7km/h 41% 0.00in /  0mm 909 W/m2
13:10 96.7 °F /  35.9 °C 69.1 °F /  20.6 °C 30.10in /  1019.2hPa West 3mph /  4.8km/h 12mph /  19.3km/h 41% 0.00in /  0mm 904 W/m2
13:20 96.8 °F /  36 °C 68.5 °F /  20.3 °C 30.09in /  1018.8hPa WNW 3mph /  4.8km/h 9mph /  14.5km/h 40% 0.00in /  0mm 898 W/m2
13:30 97 °F /  36.1 °C 68 °F /  20 °C 30.09in /  1018.8hPa WNW 6mph /  9.7km/h 10mph /  16.1km/h 39% 0.00in /  0mm 890 W/m2
13:40 97.3 °F /  36.3 °C 66.7 °F /  19.3 °C 30.09in /  1018.8hPa West 6mph /  9.7km/h 10mph /  16.1km/h 37% 0.00in /  0mm 881 W/m2
13:50 97.7 °F /  36.5 °C 68.6 °F /  20.3 °C 30.09in /  1018.8hPa WSW 6mph /  9.7km/h 12mph /  19.3km/h 39% 0.00in /  0mm 870 W/m2
14:00 97.8 °F /  36.6 °C 67.9 °F /  19.9 °C 30.09in /  1018.8hPa WSW 7mph /  11.3km/h 12mph /  19.3km/h 38% 0.00in /  0mm 857 W/m2
14:10 98.3 °F /  36.8 °C 67.5 °F /  19.7 °C 30.08in /  1018.5hPa SSW 3mph /  4.8km/h 12mph /  19.3km/h 37% 0.00in /  0mm 844 W/m2
14:20 98.6 °F /  37 °C 67 °F /  19.4 °C 30.08in /  1018.5hPa West 3mph /  4.8km/h 12mph /  19.3km/h 36% 0.00in /  0mm 829 W/m2
14:30 98.8 °F /  37.1 °C 66.4 °F /  19.1 °C 30.08in /  1018.5hPa WSW 6mph /  9.7km/h 11mph /  17.7km/h 35% 0.00in /  0mm 812 W/m2
14:40 98.8 °F /  37.1 °C 66.4 °F /  19.1 °C 30.08in /  1018.5hPa SW 8mph /  12.9km/h 13mph /  20.9km/h 35% 0.00in /  0mm 794 W/m2
14:50 98.8 °F /  37.1 °C 66.4 °F /  19.1 °C 30.08in /  1018.5hPa WSW 6mph /  9.7km/h 12mph /  19.3km/h 35% 0.00in /  0mm 775 W/m2
15:00 99 °F /  37.2 °C 66.5 °F /  19.2 °C 30.07in /  1018.2hPa West 6mph /  9.7km/h 12mph /  19.3km/h 35% 0.00in /  0mm 754 W/m2
15:10 99.1 °F /  37.3 °C 65.8 °F /  18.8 °C 30.07in /  1018.2hPa WNW 3mph /  4.8km/h 12mph /  19.3km/h 34% 0.00in /  0mm 733 W/m2
15:20 99.4 °F /  37.4 °C 66.9 °F /  19.4 °C 30.07in /  1018.2hPa West 6mph /  9.7km/h 8mph /  12.9km/h 35% 0.00in /  0mm 710 W/m2
15:30 99.5 °F /  37.5 °C 66.2 °F /  19 °C 30.07in /  1018.2hPa SW 5mph /  8km/h 8mph /  12.9km/h 34% 0.00in /  0mm 686 W/m2
15:40 99.3 °F /  37.4 °C 65.1 °F /  18.4 °C 30.06in /  1017.8hPa WSW 6mph /  9.7km/h 13mph /  20.9km/h 33% 0.00in /  0mm 661 W/m2
15:50 99.5 °F /  37.5 °C 66.2 °F /  19 °C 30.06in /  1017.8hPa WSW 5mph /  8km/h 13mph /  20.9km/h 34% 0.00in /  0mm 635 W/m2
16:00 99.5 °F /  37.5 °C 66.2 °F /  19 °C 30.06in /  1017.8hPa West 6mph /  9.7km/h 12mph /  19.3km/h 34% 0.00in /  0mm 609 W/m2
16:10 99.3 °F /  37.4 °C 66 °F /  18.9 °C 30.06in /  1017.8hPa West 6mph /  9.7km/h 12mph /  19.3km/h 34% 0.00in /  0mm 581 W/m2
16:20 99.5 °F /  37.5 °C 67 °F /  19.4 °C 30.06in /  1017.8hPa West 5mph /  8km/h 11mph /  17.7km/h 35% 0.00in /  0mm 553 W/m2
16:30 99.5 °F /  37.5 °C 66.2 °F /  19 °C 30.06in /  1017.8hPa West 6mph /  9.7km/h 12mph /  19.3km/h 34% 0.00in /  0mm 524 W/m2
16:40 99.1 °F /  37.3 °C 65.8 °F /  18.8 °C 30.06in /  1017.8hPa West 7mph /  11.3km/h 12mph /  19.3km/h 34% 0.00in /  0mm 494 W/m2
16:50 99 °F /  37.2 °C 65.7 °F /  18.7 °C 30.06in /  1017.8hPa West 6mph /  9.7km/h 10mph /  16.1km/h 34% 0.00in /  0mm 464 W/m2
17:00 99 °F /  37.2 °C 65.7 °F /  18.7 °C 30.06in /  1017.8hPa West 6mph /  9.7km/h 11mph /  17.7km/h 34% 0.00in /  0mm 427 W/m2
17:10 98.8 °F /  37.1 °C 65.5 °F /  18.6 °C 30.06in /  1017.8hPa West 6mph /  9.7km/h 14mph /  22.5km/h 34% 0.00in /  0mm 398 W/m2
17:20 98.4 °F /  36.9 °C 65.2 °F /  18.4 °C 30.06in /  1017.8hPa West 6mph /  9.7km/h 13mph /  20.9km/h 34% 0.00in /  0mm 366 W/m2
17:30 98.4 °F /  36.9 °C 65.2 °F /  18.4 °C 30.06in /  1017.8hPa West 6mph /  9.7km/h 9mph /  14.5km/h 34% 0.00in /  0mm 332 W/m2
17:40 98.1 °F /  36.7 °C 64.9 °F /  18.3 °C 30.06in /  1017.8hPa West 6mph /  9.7km/h 10mph /  16.1km/h 34% 0.00in /  0mm 298 W/m2
17:50 97.7 °F /  36.5 °C 64.6 °F /  18.1 °C 30.06in /  1017.8hPa West 6mph /  9.7km/h 12mph /  19.3km/h 34% 0.00in /  0mm 266 W/m2
18:00 97.5 °F /  36.4 °C 64.4 °F /  18 °C 30.06in /  1017.8hPa West 5mph /  8km/h 9mph /  14.5km/h 34% 0.00in /  0mm 229 W/m2
18:10 97.3 °F /  36.3 °C 65.1 °F /  18.4 °C 30.06in /  1017.8hPa West 5mph /  8km/h 9mph /  14.5km/h 35% 0.00in /  0mm 196 W/m2
18:20 97 °F /  36.1 °C 64.8 °F /  18.2 °C 30.06in /  1017.8hPa West 2mph /  3.2km/h 7mph /  11.3km/h 35% 0.00in /  0mm 165 W/m2
18:30 96.7 °F /  35.9 °C 64.6 °F /  18.1 °C 30.06in /  1017.8hPa West 2mph /  3.2km/h 6mph /  9.7km/h 35% 0.00in /  0mm 137 W/m2
18:40 96.4 °F /  35.8 °C 64.3 °F /  17.9 °C 30.06in /  1017.8hPa NW 2mph /  3.2km/h 5mph /  8km/h 35% 0.00in /  0mm 108 W/m2
18:50 95.9 °F /  35.5 °C 63 °F /  17.2 °C 30.06in /  1017.8hPa NNW 2mph /  3.2km/h 6mph /  9.7km/h 34% 0.00in /  0mm 80 W/m2
19:00 95.1 °F /  35.1 °C 63.2 °F /  17.3 °C 30.06in /  1017.8hPa North 2mph /  3.2km/h 5mph /  8km/h 35% 0.00in /  0mm 57 W/m2
19:10 94.1 °F /  34.5 °C 63.9 °F /  17.7 °C 30.06in /  1017.8hPa NNW 2mph /  3.2km/h 3mph /  4.8km/h 37% 0.00in /  0mm 38 W/m2
19:20 92.9 °F /  33.8 °C 63.6 °F /  17.6 °C 30.06in /  1017.8hPa Calm   4mph /  6.4km/h 38% 0.00in /  0mm 24 W/m2
19:30 91.5 °F /  33.1 °C 65.2 °F /  18.4 °C 30.06in /  1017.8hPa North 1mph /  1.6km/h 2mph /  3.2km/h 42% 0.00in /  0mm 13 W/m2
19:40 89.9 °F /  32.2 °C 65.1 °F /  18.4 °C 30.06in /  1017.8hPa South 2mph /  3.2km/h 3mph /  4.8km/h 44% 0.00in /  0mm 5 W/m2
19:50 88.5 °F /  31.4 °C 63.8 °F /  17.7 °C 30.07in /  1018.2hPa WNW 2mph /  3.2km/h 5mph /  8km/h 44% 0.00in /  0mm 0 W/m2
20:00 87.3 °F /  30.7 °C 64.6 °F /  18.1 °C 30.07in /  1018.2hPa WSW 2mph /  3.2km/h 5mph /  8km/h 47% 0.00in /  0mm 0 W/m2
20:10 86.2 °F /  30.1 °C 64.8 °F /  18.2 °C 30.07in /  1018.2hPa West 1mph /  1.6km/h 3mph /  4.8km/h 49% 0.00in /  0mm 0 W/m2
20:20 84.9 °F /  29.4 °C 64.2 °F /  17.9 °C 30.08in /  1018.5hPa WSW 3mph /  4.8km/h 5mph /  8km/h 50% 0.00in /  0mm 0 W/m2
20:30 83.9 °F /  28.8 °C 63.3 °F /  17.4 °C 30.08in /  1018.5hPa SW 2mph /  3.2km/h 3mph /  4.8km/h 50% 0.00in /  0mm 0 W/m2
20:40 82.8 °F /  28.2 °C 63.3 °F /  17.4 °C 30.09in /  1018.8hPa SW 1mph /  1.6km/h 2mph /  3.2km/h 52% 0.00in /  0mm 0 W/m2
20:50 81.9 °F /  27.7 °C 63.6 °F /  17.6 °C 30.09in /  1018.8hPa WSW 1mph /  1.6km/h 2mph /  3.2km/h 54% 0.00in /  0mm 0 W/m2
21:00 81 °F /  27.2 °C 63.3 °F /  17.4 °C 30.10in /  1019.2hPa WSW 1mph /  1.6km/h 2mph /  3.2km/h 55% 0.00in /  0mm 0 W/m2
21:10 80.1 °F /  26.7 °C 62.4 °F /  16.9 °C 30.10in /  1019.2hPa Calm   2mph /  3.2km/h 55% 0.00in /  0mm 0 W/m2
21:20 79.4 °F /  26.3 °C 61.9 °F /  16.6 °C 30.10in /  1019.2hPa WSW 2mph /  3.2km/h 4mph /  6.4km/h 55% 0.00in /  0mm 0 W/m2
21:30 78.7 °F /  25.9 °C 61.7 °F /  16.5 °C 30.10in /  1019.2hPa SW 1mph /  1.6km/h 3mph /  4.8km/h 56% 0.00in /  0mm 0 W/m2
21:40 78.1 °F /  25.6 °C 61.6 °F /  16.4 °C 30.10in /  1019.2hPa Calm   4mph /  6.4km/h 57% 0.00in /  0mm 0 W/m2
21:50 77.5 °F /  25.3 °C 61.6 °F /  16.4 °C 30.10in /  1019.2hPa Calm   3mph /  4.8km/h 58% 0.00in /  0mm 0 W/m2
22:00 76.7 °F /  24.8 °C 62.7 °F /  17.1 °C 30.10in /  1019.2hPa WSW 2mph /  3.2km/h 4mph /  6.4km/h 62% 0.00in /  0mm 0 W/m2
22:10 75.9 °F /  24.4 °C 62.4 °F /  16.9 °C 30.10in /  1019.2hPa West 2mph /  3.2km/h 3mph /  4.8km/h 63% 0.00in /  0mm 0 W/m2
22:20 75.2 °F /  24 °C 61.7 °F /  16.5 °C 30.11in /  1019.5hPa NNW 1mph /  1.6km/h 3mph /  4.8km/h 63% 0.00in /  0mm 0 W/m2
22:30 74.8 °F /  23.8 °C 61.4 °F /  16.3 °C 30.11in /  1019.5hPa South 1mph /  1.6km/h 3mph /  4.8km/h 63% 0.00in /  0mm 0 W/m2
22:40 74.7 °F /  23.7 °C 61.2 °F /  16.2 °C 30.11in /  1019.5hPa SSW 2mph /  3.2km/h 3mph /  4.8km/h 63% 0.00in /  0mm 0 W/m2
22:50 74.5 °F /  23.6 °C 61.1 °F /  16.2 °C 30.11in /  1019.5hPa Calm   2mph /  3.2km/h 63% 0.00in /  0mm 0 W/m2
23:00 73.9 °F /  23.3 °C 61.4 °F /  16.3 °C 30.11in /  1019.5hPa WSW 2mph /  3.2km/h 3mph /  4.8km/h 65% 0.00in /  0mm 0 W/m2
23:10 73.4 °F /  23 °C 60.9 °F /  16.1 °C 30.11in /  1019.5hPa West 1mph /  1.6km/h 3mph /  4.8km/h 65% 0.00in /  0mm 0 W/m2
23:20 73.2 °F /  22.9 °C 60.7 °F /  15.9 °C 30.11in /  1019.5hPa Calm   2mph /  3.2km/h 65% 0.00in /  0mm 0 W/m2
23:30 73 °F /  22.8 °C 61.4 °F /  16.3 °C 30.11in /  1019.5hPa Calm   2mph /  3.2km/h 67% 0.00in /  0mm 0 W/m2
23:40 72.2 °F /  22.3 °C 61.5 °F /  16.4 °C 30.11in /  1019.5hPa Calm   2mph /  3.2km/h 69% 0.00in /  0mm 0 W/m2
23:50 71.6 °F /  22 °C 60.9 °F /  16.1 °C 30.12in /  1019.9hPa West 1mph /  1.6km/h 2mph /  3.2km/h 69% 0.00in /  0mm 0 W/m2
Knjazevac, Serbia
Compliments of Weather Underground - 2 mb